Flight Track Log - Related Links

Times and Time Zones

All times are in EST time to prevent confusion due to time zone crossing. See the N6036Y flight status page for this flight to view local times or setup timezone preferences in your user account.

Time Position Orientation Groundspeed Altitude Reporting Facility
EST Latitude Longitude Course Direction KTS MPH feet Rate Location/Type
Mon 08:41:49 PM 28.0500 -82.3833 41° Northeast 121 139 5,500  Level Tampa TRACON
Mon 08:42:49 PM 28.0833 -82.3500 41° Northeast 118 136 5,500  Level Tampa TRACON
Mon 08:43:43 PM 28.1000 -82.3333 41° Northeast 115 132 5,500  Level Tampa TRACON
Mon 08:44:43 PM 28.1167 -82.3000 60° Northeast 117 135 5,500  Level Tampa TRACON
Mon 08:45:43 PM 28.1500 -82.2833 24° Northeast 121 139 5,500  Level Tampa TRACON
Mon 08:46:43 PM 28.1667 -82.2500 60° Northeast 121 139 5,500  Level Tampa TRACON
Mon 08:47:43 PM 28.1833 -82.2167 60° Northeast 120 138 5,500  Level Tampa TRACON
Mon 08:48:43 PM 28.2000 -82.1833 60° Northeast 120 138 5,500  Level Tampa TRACON
Mon 08:51:00 PM 28.2500 -82.1167 50° Northeast 121 139 5,500  Level Orlando TRACON
Mon 08:52:00 PM 28.2667 -82.0833 60° Northeast 122 140 5,500  Level Orlando TRACON
Mon 08:53:00 PM 28.3000 -82.0500 41° Northeast 122 140 5,500  Level Orlando TRACON
Mon 08:54:00 PM 28.3167 -82.0333 41° Northeast 121 139 5,500  Level Orlando TRACON
Mon 08:54:54 PM 28.3333 -82.0000 60° Northeast 120 138 5,500  Level Orlando TRACON
Mon 08:55:54 PM 28.3500 -81.9667 60° Northeast 120 138 5,500  Level Orlando TRACON
Mon 08:56:48 PM 28.3833 -81.9500 24° Northeast 121 139 5,500  Level Orlando TRACON
Mon 08:57:54 PM 28.4000 -81.9167 60° Northeast 123 142 5,500  Level Orlando TRACON
Mon 08:58:48 PM 28.4167 -81.8833 60° Northeast 122 140 5,500  Level Orlando TRACON
Mon 08:59:54 PM 28.4500 -81.8500 41° Northeast 121 139 5,500  Level Orlando TRACON
Mon 09:00:54 PM 28.4667 -81.8167 60° Northeast 121 139 5,500  Level Orlando TRACON
Mon 09:01:54 PM 28.4833 -81.8000 41° Northeast 123 142 5,500  Level Orlando TRACON
Mon 09:02:55 PM 28.5000 -81.7667 60° Northeast 124 143 5,500  Level Orlando TRACON
Mon 09:03:55 PM 28.5333 -81.7333 41° Northeast 122 140 5,500  Level Orlando TRACON
Mon 09:04:49 PM 28.5500 -81.7000 60° Northeast 123 142 5,500  Level Orlando TRACON
Mon 09:05:49 PM 28.5667 -81.6667 60° Northeast 122 140 5,500  Level Orlando TRACON
Mon 09:06:49 PM 28.5833 -81.6333 60° Northeast 124 143 5,500  Level Orlando TRACON
Mon 09:07:49 PM 28.6000 -81.6167 41° Northeast 124 143 5,500  Level Orlando TRACON
Mon 09:08:49 PM 28.6333 -81.5833 41° Northeast 124 143 5,500  Level Orlando TRACON
Mon 09:09:49 PM 28.6500 -81.5500 60° Northeast 125 144 5,500  Level Orlando TRACON
Mon 09:10:49 PM 28.6667 -81.5167 60° Northeast 126 145 5,500  Level Orlando TRACON
Mon 09:11:55 PM 28.6833 -81.4833 60° Northeast 123 142 5,500  Level Orlando TRACON
Mon 09:12:50 PM 28.7167 -81.4500 41° Northeast 125 144 5,500  Level Orlando TRACON
Mon 09:13:56 PM 28.7333 -81.4167 60° Northeast 125 144 5,500 -190 Level Orlando TRACON
Mon 09:14:56 PM 28.7500 -81.3833 60° Northeast 126 145 5,100 -476 Descending Orlando TRACON
Mon 09:16:02 PM 28.7833 -81.3500 41° Northeast 120 138 4,500 -486 Descending Orlando TRACON
Mon 09:18:01 PM 28.8247 -81.3025 45° Northeast 118 136 3,600 -300 Descending Jacksonville Center
Mon 09:19:02 PM 28.8450 -81.2736 51° Northeast 121 139 3,600  Level Jacksonville Center
Mon 09:20:03 PM 28.8633 -81.2378 60° Northeast 125 144 3,600  Level Jacksonville Center
Mon 09:21:04 PM 28.8797 -81.2044 61° Northeast 126 145 3,600  Level Jacksonville Center
Mon 09:22:05 PM 28.9003 -81.1731 53° Northeast 123 142 3,600 -148 Level Jacksonville Center
Mon 09:23:06 PM 28.9183 -81.1397 58° Northeast 125 144 3,300 -298 Descending Jacksonville Center
Mon 09:24:06 PM 28.9411 -81.1083 50° Northeast 124 143 3,000 -331 Descending Jacksonville Center
Mon 09:25:13 PM 28.9656 -81.0747 50° Northeast 120 138 2,600 -328 Descending Jacksonville Center
Mon 09:26:14 PM 28.9881 -81.0458 48° Northeast 123 142 2,300 -298 Descending Jacksonville Center
Mon 09:27:14 PM 29.0022 -81.0100 66° East 127 146 2,000 -298 Descending Jacksonville Center
Mon 09:28:15 PM 29.0119 -80.9669 76° East 128 147 1,700 -393 Descending Jacksonville Center
Mon 09:29:16 PM 29.0197 -80.9311 76° East 106 122 1,200 -520 Descending Jacksonville Center
Mon 09:30:22 PM 29.0406 -80.9214 22° Northeast 68 78 600 -545 Descending Jacksonville Center
Mon 09:32:00 PM 29.0557 -80.9489 312° West  Level Estimated
Mon 09:39:00 PM 29.0557 -80.9489 56° Northeast  Level Estimated
Mon 09:40:00 PM 29.0557 -80.9489 56° Northeast  Level Estimated
Mon 09:41:00 PM 29.0557 -80.9489 56° Northeast  Level Estimated

Login

Don't have an account? Register now (free) for customized features, flight alerts, and more!